Main page
METAR-TAF:

METAR-TAF

Airports :

Jammu Airport

Jammu, India

latitude: 32-41-21N, longitude: 74-50-15E, elevation: 314 m

Current weather observation

The report was made 1 hour and 23 minutes ago, at 04:30 UTC
Wind 6 kt from the South/Southeast
Temperature 30°C
Humidity 70%
Pressure 1006 hPa
Visibility: 6000 m
Few clouds at a height of 2500 ft
Scattered clouds at a height of 9000 ft

METAR: VIJU 250430Z 15006KT 6000 FEW025 SCT090 30/24 Q1006 NOSIG

Time: 11:23 (05:53 UTC)

Forecast

The report was made 2 hours and 23 minutes ago, at 03:30 UTC
Forecast valid from 25 at 06 UTC to 25 at 18 UTC
Wind 2 kt from variable directions
Visibility: 6000 m
Scattered clouds at a height of 3000 ft
Scattered clouds at a height of 9000 ft
Temporary
from 25 at 12 UTC to 25 at 15 UTC

TAF: VIJU 250330Z 2506/2518 VRB02KT 6000 SCT030 SCT090 TEMPO 2512/2515 FEW030TCU/CB

Weather observations and forecasts of more than 4000 airports (METAR and TAF reports).

The available stations are represented by yellow and red dots on the map.

Hover mouse over dot to see the name of the station.

Then click to see weather observations and forecasts.

To change the map : click on the green buttons with a black cross to zoom in, on the green button with a dash to zoom out, or on the green arrows for adjacent maps.


METAR-TAF: